Capitol Logistics 266




KCLT
Charlotte/Douglas International Airport
Charlotte, North Carolina
KRIV
March Air Reserve Base
Riverside, California

Activity Log

Date Flight Route Aircraft Duration
04/16/2020 CPX266 BOBZY4 BOBZY HARAY GQO J118 MEM J66 LIT J14 PNH J6 DRK J231 HIPPI J10 CADEZ TRM ARKOE1 B763 5h 20m

Route Details

Aircraft Information
Primary: Boeing 767-300BDSF
Backup: Boeing 757-200SF
Route Data
Distance: 1804nm
Duration: 4h 45m
Recm'd Route: BOBZY4 BNA J46 TUL PNH J78 DRK J134 TRM ARKOE1
Origin Wx: KCLT 141852Z 20011KT 10SM FEW060 SCT120 BKN250 28/11 A2997 RMK AO2 SLP143 T02830111
Dest. Wx: KRIV 141858Z 00000KT 10SM SCT045 BKN250 17/05 A2997 RMK AO2A SLP145 T01700047
Notes: